Time;durP1;ratioP1;P1;durP2;ratioP2;P2;SDS_P1;SDS_P2;PMS_P1;PMS_P2;Temp;Humidity;BMP_temperature;BMP_pressure;BME280_temperature;BME280_humidity;BME280_pressure;Samples;Min_cycle;Max_cycle;Signal;HPM_P1;HPM_P2
2021/08/02 00:00:15;;;;;;;8.80;6.47;;;18.10;99.90;;;;;;5056563;28;20165;-81
2021/08/02 00:02:50;;;;;;;7.27;5.80;;;17.90;99.90;;;;;;5055693;28;20146;-78
2021/08/02 00:05:17;;;;;;;7.17;5.53;;;17.80;99.90;;;;;;5056261;28;20195;-80
2021/08/02 00:07:43;;;;;;;8.33;5.97;;;17.50;99.90;;;;;;5055970;28;20177;-83
2021/08/02 00:10:15;;;;;;;7.10;5.10;;;17.30;99.90;;;;;;5074833;28;20159;-77
2021/08/02 00:12:49;;;;;;;6.67;5.30;;;17.30;99.90;;;;;;5077847;28;20157;-77
2021/08/02 00:15:18;;;;;;;6.07;5.27;;;17.20;99.90;;;;;;5073006;28;20170;-78
2021/08/02 00:17:45;;;;;;;8.13;5.40;;;17.10;99.90;;;;;;5070914;28;20201;-78
2021/08/02 00:20:18;;;;;;;7.97;5.30;;;17.20;99.90;;;;;;5065397;28;20270;-82
2021/08/02 00:22:46;;;;;;;8.03;5.87;;;17.10;99.90;;;;;;5059091;28;20648;-78
2021/08/02 00:25:14;;;;;;;10.23;6.30;;;17.20;99.90;;;;;;5057807;28;20220;-82
2021/08/02 00:27:39;;;;;;;8.13;6.37;;;17.40;99.90;;;;;;5055753;28;20493;-78
2021/08/02 00:30:07;;;;;;;10.87;6.60;;;17.60;99.90;;;;;;5057262;28;20164;-79
2021/08/02 00:32:34;;;;;;;9.80;5.87;;;17.50;99.90;;;;;;5057679;28;20573;-81
2021/08/02 00:35:01;;;;;;;8.17;6.60;;;17.50;99.90;;;;;;5056768;28;20167;-81
2021/08/02 00:37:50;;;;;;;7.73;5.80;;;17.50;99.90;;;;;;5057146;28;20204;-82
2021/08/02 00:40:37;;;;;;;8.83;5.80;;;17.50;99.90;;;;;;5076115;28;20188;-82
2021/08/02 00:43:30;;;;;;;6.17;5.23;;;17.50;99.90;;;;;;5078127;28;20173;-84
2021/08/02 00:45:58;;;;;;;10.73;5.13;;;17.50;99.90;;;;;;5068534;28;20184;-78
2021/08/02 00:48:28;;;;;;;9.27;5.43;;;17.50;99.90;;;;;;5063458;28;20192;-82
2021/08/02 00:51:02;;;;;;;6.87;5.60;;;17.40;99.90;;;;;;5057853;28;20201;-79
2021/08/02 00:53:33;;;;;;;6.90;4.87;;;17.60;99.90;;;;;;5054959;28;20199;-82
2021/08/02 00:56:03;;;;;;;8.03;4.70;;;17.70;99.90;;;;;;5055509;28;20204;-81
2021/08/02 00:58:30;;;;;;;6.57;4.63;;;17.80;99.90;;;;;;5055929;28;20184;-78
2021/08/02 01:00:57;;;;;;;9.23;5.17;;;17.80;99.50;;;;;;5057227;28;20178;-79
2021/08/02 01:03:23;;;;;;;7.50;4.60;;;17.80;99.20;;;;;;5069245;28;20278;-80
2021/08/02 01:05:53;;;;;;;8.03;5.27;;;17.80;99.30;;;;;;5066000;28;20165;-78
2021/08/02 01:08:30;;;;;;;8.00;5.97;;;17.80;99.90;;;;;;5066824;28;20177;-79
2021/08/02 01:11:20;;;;;;;10.83;8.37;;;17.50;99.90;;;;;;5067160;28;20252;-77
2021/08/02 01:13:46;;;;;;;8.63;7.07;;;17.30;99.90;;;;;;5058329;28;20172;-78
2021/08/02 01:16:12;;;;;;;9.50;6.90;;;16.70;99.90;;;;;;5056214;28;20197;-77
2021/08/02 01:18:39;;;;;;;9.73;7.10;;;16.60;99.90;;;;;;5053327;28;20225;-78
2021/08/02 01:21:11;;;;;;;8.47;7.00;;;16.60;99.90;;;;;;5053985;28;20664;-79
2021/08/02 01:23:39;;;;;;;9.17;6.90;;;16.50;99.90;;;;;;5053479;28;20191;-80
2021/08/02 01:26:04;;;;;;;10.53;7.60;;;16.70;99.90;;;;;;5053856;28;20165;-83
2021/08/02 01:28:30;;;;;;;12.70;8.37;;;16.50;99.90;;;;;;5052404;28;20629;-78
2021/08/02 01:30:57;;;;;;;11.53;8.50;;;16.40;99.90;;;;;;5053765;28;20487;-80
2021/08/02 01:33:31;;;;;;;11.80;8.97;;;16.40;99.90;;;;;;5053648;28;20847;-79
2021/08/02 01:36:02;;;;;;;14.13;9.20;;;16.30;99.90;;;;;;5051924;28;20208;-79
2021/08/02 01:38:30;;;;;;;11.47;8.40;;;16.30;99.90;;;;;;5053155;28;20226;-79
2021/08/02 01:40:56;;;;;;;10.50;9.00;;;16.30;99.90;;;;;;5053132;28;20169;-79
2021/08/02 01:43:22;;;;;;;10.57;8.40;;;16.30;99.90;;;;;;5052941;28;20173;-79
2021/08/02 01:46:11;;;;;;;12.10;8.20;;;16.40;99.90;;;;;;5052833;28;20180;-77
2021/08/02 01:48:58;;;;;;;11.17;8.67;;;16.40;99.90;;;;;;5054405;28;20210;-80
2021/08/02 01:51:42;;;;;;;11.60;8.37;;;16.50;99.90;;;;;;5053674;28;20169;-79
2021/08/02 01:54:43;;;;;;;12.37;8.77;;;16.40;99.90;;;;;;5053096;28;20165;-78
2021/08/02 01:57:18;;;;;;;12.40;8.97;;;16.50;99.90;;;;;;5051621;28;20749;-77
2021/08/02 02:00:05;;;;;;;10.57;8.13;;;16.40;99.90;;;;;;5052764;28;20267;-78
2021/08/02 02:02:34;;;;;;;10.13;9.07;;;16.40;99.90;;;;;;5053099;28;20252;-78
2021/08/02 02:05:07;;;;;;;12.00;8.80;;;16.40;99.90;;;;;;5052829;28;20165;-79
2021/08/02 02:07:49;;;;;;;10.57;7.40;;;16.30;99.90;;;;;;5053180;28;20175;-78
2021/08/02 02:10:16;;;;;;;12.67;8.07;;;16.20;99.90;;;;;;5053078;28;20242;-77
2021/08/02 02:12:43;;;;;;;13.03;9.00;;;16.20;99.90;;;;;;5054090;28;20161;-79
2021/08/02 02:15:10;;;;;;;10.83;8.17;;;16.10;99.90;;;;;;5053980;28;20633;-78
2021/08/02 02:17:37;;;;;;;11.67;8.53;;;16.10;99.90;;;;;;5053947;28;20208;-79
2021/08/02 02:20:05;;;;;;;10.20;8.27;;;16.10;99.90;;;;;;5052879;28;20267;-78
2021/08/02 02:22:31;;;;;;;11.60;8.90;;;16.00;99.90;;;;;;5051879;28;20271;-78
2021/08/02 02:24:58;;;;;;;12.70;8.70;;;16.10;99.90;;;;;;5035260;28;20200;-78
2021/08/02 02:27:24;;;;;;;10.73;8.70;;;16.10;99.90;;;;;;5052701;28;20165;-79
2021/08/02 02:29:51;;;;;;;12.20;8.83;;;16.20;99.90;;;;;;5052846;28;20177;-79
2021/08/02 02:32:18;;;;;;;12.57;8.80;;;16.20;99.90;;;;;;5053120;28;20177;-83
2021/08/02 02:34:46;;;;;;;13.13;11.37;;;16.20;99.90;;;;;;5053636;28;20177;-82
2021/08/02 02:37:13;;;;;;;12.83;9.33;;;16.20;99.90;;;;;;5052661;28;20240;-79
2021/08/02 02:39:40;;;;;;;16.47;10.00;;;16.30;99.90;;;;;;5052802;28;20172;-80
2021/08/02 02:42:07;;;;;;;12.33;9.50;;;16.40;99.90;;;;;;5052847;28;20179;-80
2021/08/02 02:44:34;;;;;;;14.33;9.93;;;16.30;99.90;;;;;;5053097;28;20564;-80
2021/08/02 02:47:00;;;;;;;14.53;9.77;;;16.50;99.90;;;;;;5052851;28;20566;-78
2021/08/02 02:49:27;;;;;;;12.13;9.20;;;16.50;99.90;;;;;;5052800;28;20185;-78
2021/08/02 02:51:53;;;;;;;14.30;9.77;;;16.50;99.90;;;;;;5052783;28;20637;-78
2021/08/02 02:54:21;;;;;;;13.47;9.73;;;16.50;99.90;;;;;;5053401;28;20173;-79
2021/08/02 02:56:46;;;;;;;13.67;11.17;;;16.60;99.90;;;;;;5050981;28;20230;-79
2021/08/02 02:59:12;;;;;;;13.37;10.17;;;16.70;99.90;;;;;;5054304;28;20345;-78
2021/08/02 03:01:40;;;;;;;17.20;10.47;;;16.70;99.90;;;;;;5054935;28;20260;-78
2021/08/02 03:04:08;;;;;;;13.50;10.53;;;16.80;99.90;;;;;;5056147;28;20211;-81
2021/08/02 03:06:35;;;;;;;13.63;10.67;;;16.80;99.90;;;;;;5056061;28;20168;-77
2021/08/02 03:09:02;;;;;;;13.53;11.13;;;16.60;99.90;;;;;;5056037;28;20169;-79
2021/08/02 03:11:29;;;;;;;12.77;10.03;;;16.60;99.90;;;;;;5055929;28;20698;-79
2021/08/02 03:13:56;;;;;;;12.53;9.37;;;16.50;99.90;;;;;;5056452;28;20188;-78
2021/08/02 03:16:25;;;;;;;14.33;9.73;;;16.50;99.90;;;;;;5055696;28;20322;-78
2021/08/02 03:18:51;;;;;;;10.70;9.03;;;16.50;99.90;;;;;;5055890;28;20184;-79
2021/08/02 03:21:18;;;;;;;13.17;9.30;;;16.40;99.90;;;;;;5054279;28;20177;-80
2021/08/02 03:23:50;;;;;;;11.33;9.13;;;16.30;99.90;;;;;;5054286;28;20203;-79
2021/08/02 03:26:21;;;;;;;11.93;8.43;;;16.40;99.90;;;;;;5055236;28;20248;-81
2021/08/02 03:28:55;;;;;;;11.73;8.97;;;16.50;99.90;;;;;;5037838;28;20169;-80
2021/08/02 03:31:28;;;;;;;13.07;8.83;;;16.50;99.90;;;;;;5055432;28;20171;-79
2021/08/02 03:33:55;;;;;;;11.17;8.67;;;16.50;99.90;;;;;;5055354;28;20165;-79
2021/08/02 03:36:22;;;;;;;14.73;9.17;;;16.30;99.90;;;;;;5055174;28;20242;-78
2021/08/02 03:38:50;;;;;;;11.17;8.30;;;16.30;99.90;;;;;;5054980;28;20655;-80
2021/08/02 03:41:19;;;;;;;12.47;8.63;;;16.20;99.90;;;;;;5055189;28;20196;-79
2021/08/02 03:43:46;;;;;;;10.90;9.03;;;16.20;99.90;;;;;;5055654;28;20192;-78
2021/08/02 03:46:12;;;;;;;16.37;8.77;;;16.30;99.90;;;;;;5055358;28;20214;-79
2021/08/02 03:48:38;;;;;;;12.57;8.87;;;16.40;99.90;;;;;;5055160;28;20189;-82
2021/08/02 03:51:05;;;;;;;13.67;8.93;;;16.40;99.90;;;;;;5055212;28;20238;-79
2021/08/02 03:53:44;;;;;;;10.93;8.40;;;16.30;99.90;;;;;;5054815;28;20208;-79
2021/08/02 03:56:12;;;;;;;17.73;9.27;;;16.20;99.90;;;;;;5055003;28;20211;-79
2021/08/02 03:58:38;;;;;;;12.37;7.80;;;16.20;99.90;;;;;;5055476;28;20179;-79
2021/08/02 04:01:04;;;;;;;11.17;7.87;;;16.30;99.90;;;;;;5056110;28;20595;-78
2021/08/02 04:03:30;;;;;;;13.53;9.07;;;16.40;99.90;;;;;;5055868;28;20629;-79
2021/08/02 04:05:58;;;;;;;13.43;9.10;;;16.30;99.90;;;;;;5055267;28;20176;-79
2021/08/02 04:08:25;;;;;;;10.87;8.30;;;16.30;99.90;;;;;;5055764;28;20165;-78
2021/08/02 04:10:50;;;;;;;12.13;9.40;;;16.20;99.90;;;;;;5061096;28;20169;-77
2021/08/02 04:13:17;;;;;;;14.43;10.20;;;16.40;99.90;;;;;;5061958;28;20180;-77
2021/08/02 04:15:45;;;;;;;13.63;10.53;;;16.30;99.90;;;;;;5068815;28;20227;-78
2021/08/02 04:18:10;;;;;;;13.97;10.57;;;16.10;99.90;;;;;;5078907;28;20181;-77
2021/08/02 04:20:36;;;;;;;15.63;11.80;;;15.90;99.90;;;;;;5070101;28;20219;-78
2021/08/02 04:23:02;;;;;;;16.97;11.87;;;15.80;99.90;;;;;;5065525;28;20176;-79
2021/08/02 04:25:27;;;;;;;12.23;10.63;;;15.70;99.90;;;;;;5057429;28;20218;-83
2021/08/02 04:27:56;;;;;;;14.93;10.83;;;15.70;99.90;;;;;;5053227;28;20176;-79
2021/08/02 04:30:24;;;;;;;15.40;9.90;;;15.70;99.90;;;;;;5055280;28;20189;-79
2021/08/02 04:32:49;;;;;;;13.93;8.80;;;15.70;99.90;;;;;;5053810;28;20640;-79
2021/08/02 04:35:15;;;;;;;13.90;7.77;;;15.70;99.90;;;;;;5055029;28;20248;-78
2021/08/02 04:37:41;;;;;;;9.57;6.70;;;15.70;99.90;;;;;;5055559;28;20205;-79
2021/08/02 04:40:07;;;;;;;11.53;6.73;;;15.60;99.90;;;;;;5056015;28;20165;-79
2021/08/02 04:42:34;;;;;;;8.57;6.57;;;15.60;99.90;;;;;;5061433;28;20177;-78
2021/08/02 04:45:00;;;;;;;11.80;7.37;;;15.70;99.90;;;;;;5078938;28;20156;-81
2021/08/02 04:47:26;;;;;;;12.90;7.80;;;15.80;99.90;;;;;;5076633;28;20197;-77
2021/08/02 04:49:52;;;;;;;10.10;6.00;;;15.70;99.90;;;;;;5064785;28;20201;-77
2021/08/02 04:52:19;;;;;;;10.90;7.33;;;15.60;99.90;;;;;;5063812;28;20227;-78
2021/08/02 04:54:50;;;;;;;14.77;8.90;;;15.50;99.90;;;;;;5054765;28;20161;-78
2021/08/02 04:57:18;;;;;;;11.53;8.70;;;15.40;99.90;;;;;;5054276;28;20216;-77
2021/08/02 04:59:44;;;;;;;12.43;8.77;;;15.40;99.90;;;;;;5054325;28;20167;-79
2021/08/02 05:02:09;;;;;;;14.03;9.27;;;15.40;99.90;;;;;;5072473;28;20161;-75
2021/08/02 05:04:36;;;;;;;16.47;9.47;;;15.40;99.90;;;;;;5074679;28;20186;-75
2021/08/02 05:07:03;;;;;;;12.87;8.60;;;15.30;99.90;;;;;;5071574;28;20171;-78
2021/08/02 05:09:28;;;;;;;12.13;8.00;;;15.30;99.90;;;;;;5064463;28;20173;-80
2021/08/02 05:11:54;;;;;;;10.57;7.97;;;15.30;99.90;;;;;;5056732;28;20214;-79
2021/08/02 05:14:21;;;;;;;14.30;8.47;;;15.30;99.90;;;;;;5054720;28;20541;-77
2021/08/02 05:16:46;;;;;;;15.60;8.77;;;15.30;99.90;;;;;;5053849;28;20679;-78
2021/08/02 05:19:12;;;;;;;12.03;8.20;;;15.30;99.90;;;;;;5053304;28;20180;-76
2021/08/02 05:21:38;;;;;;;11.63;7.63;;;15.20;99.90;;;;;;5052784;28;20175;-78
2021/08/02 05:24:05;;;;;;;9.90;6.27;;;15.10;99.90;;;;;;5053227;28;20188;-82
2021/08/02 05:26:31;;;;;;;11.70;6.53;;;15.00;99.90;;;;;;5053344;28;20172;-81
2021/08/02 05:28:56;;;;;;;8.57;5.80;;;15.10;99.90;;;;;;5053075;28;20194;-83
2021/08/02 05:31:22;;;;;;;10.83;5.50;;;14.90;99.90;;;;;;5053327;28;20211;-78
2021/08/02 05:33:48;;;;;;;10.23;7.37;;;14.80;99.90;;;;;;5053286;28;20209;-81
2021/08/02 05:36:13;;;;;;;12.30;6.73;;;15.00;99.90;;;;;;5052800;28;20194;-78
2021/08/02 05:38:40;;;;;;;9.60;6.50;;;14.70;99.90;;;;;;5053867;28;20168;-77
2021/08/02 05:41:06;;;;;;;11.97;7.33;;;14.70;99.90;;;;;;5053819;28;20170;-79
2021/08/02 05:43:32;;;;;;;9.37;6.33;;;14.60;99.90;;;;;;5053311;28;20197;-78
2021/08/02 05:45:58;;;;;;;9.73;6.87;;;14.60;99.90;;;;;;5053286;28;20167;-76
2021/08/02 05:48:23;;;;;;;10.33;6.83;;;14.70;99.90;;;;;;5053181;28;20179;-77
2021/08/02 05:50:49;;;;;;;9.37;7.27;;;14.80;99.90;;;;;;5052879;28;20171;-77
2021/08/02 05:53:15;;;;;;;12.43;7.20;;;14.70;99.90;;;;;;5053091;28;20643;-78
2021/08/02 05:55:41;;;;;;;7.73;6.47;;;14.70;99.90;;;;;;5051688;28;20177;-82
2021/08/02 05:58:06;;;;;;;11.40;6.83;;;14.70;99.90;;;;;;5052823;28;20173;-77
2021/08/02 06:00:32;;;;;;;11.93;7.37;;;14.70;99.90;;;;;;5052836;28;20583;-78
2021/08/02 06:02:57;;;;;;;13.90;8.00;;;14.60;99.90;;;;;;5052818;28;20212;-83
2021/08/02 06:05:23;;;;;;;11.80;7.33;;;14.70;99.90;;;;;;5052401;28;20168;-77
2021/08/02 06:07:49;;;;;;;9.77;6.43;;;14.70;99.90;;;;;;5052875;28;20177;-76
2021/08/02 06:10:15;;;;;;;8.87;6.20;;;14.70;99.90;;;;;;5052687;28;20178;-81
2021/08/02 06:12:41;;;;;;;11.60;7.93;;;14.50;99.90;;;;;;5051681;28;20247;-78
2021/08/02 06:15:08;;;;;;;13.07;9.03;;;14.50;99.90;;;;;;5053046;28;20171;-76
2021/08/02 06:17:34;;;;;;;12.03;9.20;;;14.60;99.90;;;;;;5052899;28;20268;-77
2021/08/02 06:19:59;;;;;;;10.73;8.43;;;14.60;99.90;;;;;;5052289;28;20178;-76
2021/08/02 06:22:25;;;;;;;10.40;9.23;;;14.70;99.90;;;;;;5052721;28;20207;-78
2021/08/02 06:24:51;;;;;;;11.40;8.60;;;14.80;99.90;;;;;;5052804;28;20341;-81
2021/08/02 06:27:16;;;;;;;9.63;8.17;;;14.70;99.90;;;;;;5052761;28;20191;-77
2021/08/02 06:29:42;;;;;;;10.07;9.00;;;14.60;99.90;;;;;;5052821;28;20178;-78
2021/08/02 06:32:08;;;;;;;11.77;8.90;;;14.60;99.90;;;;;;5051696;28;20188;-79
2021/08/02 06:34:34;;;;;;;15.13;9.43;;;14.60;99.90;;;;;;5055206;28;20272;-79
2021/08/02 06:36:59;;;;;;;11.93;8.73;;;14.70;99.90;;;;;;5056413;28;20329;-80
2021/08/02 06:39:25;;;;;;;14.43;8.87;;;14.60;99.90;;;;;;5056396;28;20257;-80
2021/08/02 06:41:51;;;;;;;10.47;8.10;;;14.60;99.90;;;;;;5055111;28;20182;-79
2021/08/02 06:44:17;;;;;;;12.83;8.33;;;14.80;99.90;;;;;;5056454;28;20245;-77
2021/08/02 06:46:43;;;;;;;13.83;8.43;;;14.90;99.90;;;;;;5056938;28;20174;-83
2021/08/02 06:49:08;;;;;;;10.30;8.27;;;14.90;99.90;;;;;;5056040;28;20186;-79
2021/08/02 06:51:34;;;;;;;12.90;8.50;;;14.90;99.90;;;;;;5056842;28;20164;-80
2021/08/02 06:54:00;;;;;;;12.07;8.93;;;14.80;99.90;;;;;;5057081;28;20601;-79
2021/08/02 06:56:26;;;;;;;10.40;8.00;;;14.90;99.90;;;;;;5056698;28;20229;-83
2021/08/02 06:58:51;;;;;;;14.77;9.07;;;15.10;99.90;;;;;;5057608;28;20169;-79
2021/08/02 07:01:17;;;;;;;12.73;8.57;;;15.10;99.90;;;;;;5056871;28;20176;-78
2021/08/02 07:03:43;;;;;;;14.70;9.50;;;15.00;99.90;;;;;;5058052;28;20167;-78
2021/08/02 07:06:09;;;;;;;13.47;9.13;;;15.00;99.90;;;;;;5056000;28;20165;-80
2021/08/02 07:08:39;;;;;;;15.23;8.40;;;15.00;99.90;;;;;;5056351;28;20162;-80
2021/08/02 07:11:06;;;;;;;12.17;8.30;;;14.90;99.90;;;;;;5055030;28;20175;-78
2021/08/02 07:13:33;;;;;;;12.37;7.93;;;14.80;99.90;;;;;;5056125;28;20637;-78
2021/08/02 07:16:00;;;;;;;13.97;8.23;;;14.90;99.90;;;;;;5055876;28;20220;-80
2021/08/02 07:18:26;;;;;;;11.20;8.40;;;14.80;99.90;;;;;;5055719;28;20183;-79
2021/08/02 07:20:52;;;;;;;12.37;8.43;;;14.80;99.90;;;;;;5056119;28;20699;-80
2021/08/02 07:23:18;;;;;;;11.00;8.17;;;14.90;99.90;;;;;;5055864;28;20209;-78
2021/08/02 07:25:43;;;;;;;11.03;7.73;;;14.90;99.90;;;;;;5056042;28;20199;-80
2021/08/02 07:28:09;;;;;;;9.67;7.33;;;14.90;99.90;;;;;;5056620;28;20253;-82
2021/08/02 07:30:35;;;;;;;11.00;8.53;;;14.90;99.90;;;;;;5055934;28;20172;-79
2021/08/02 07:33:02;;;;;;;14.43;9.47;;;15.00;99.90;;;;;;5055705;28;20640;-82
2021/08/02 07:35:28;;;;;;;10.43;8.40;;;15.00;99.90;;;;;;5055542;28;20196;-79
2021/08/02 07:37:54;;;;;;;10.97;9.00;;;15.10;99.90;;;;;;5054681;28;20208;-83
2021/08/02 07:40:19;;;;;;;10.57;8.40;;;15.20;99.90;;;;;;5055861;28;20183;-81
2021/08/02 07:42:46;;;;;;;9.83;8.83;;;15.50;99.90;;;;;;5055697;28;20171;-82
2021/08/02 07:45:12;;;;;;;8.57;6.80;;;15.50;99.90;;;;;;5054000;28;20199;-84
2021/08/02 07:47:38;;;;;;;8.53;6.07;;;15.60;99.90;;;;;;5055590;28;20647;-82
2021/08/02 07:50:06;;;;;;;8.23;5.60;;;15.70;99.90;;;;;;5055847;28;20193;-82
2021/08/02 07:52:32;;;;;;;11.10;7.27;;;15.50;99.90;;;;;;5055283;28;20236;-85
2021/08/02 07:54:59;;;;;;;11.70;8.17;;;15.50;99.90;;;;;;5055680;28;20706;-83
2021/08/02 07:57:24;;;;;;;9.67;6.37;;;15.40;99.90;;;;;;5055254;28;20212;-83
2021/08/02 07:59:50;;;;;;;9.73;7.33;;;15.40;99.90;;;;;;5056555;28;20173;-83
2021/08/02 08:02:16;;;;;;;9.37;6.00;;;15.60;99.90;;;;;;5057396;28;20194;-80
2021/08/02 08:04:41;;;;;;;9.47;5.13;;;15.60;99.90;;;;;;5055959;28;20531;-83
2021/08/02 08:07:07;;;;;;;8.90;4.63;;;15.70;99.90;;;;;;5056935;28;20617;-81
2021/08/02 08:09:34;;;;;;;6.33;4.10;;;15.60;99.90;;;;;;5076728;28;20239;-77
2021/08/02 08:12:00;;;;;;;4.37;3.50;;;15.60;99.90;;;;;;5077662;28;20169;-79
2021/08/02 08:14:26;;;;;;;5.23;3.37;;;15.80;99.90;;;;;;5069522;28;20162;-79
2021/08/02 08:16:54;;;;;;;4.93;3.10;;;15.80;99.90;;;;;;5065424;28;20265;-79
2021/08/02 08:19:22;;;;;;;4.93;3.23;;;15.80;99.90;;;;;;5073985;28;20189;-78
2021/08/02 08:22:06;;;;;;;4.70;3.00;;;15.90;99.90;;;;;;5076301;28;20169;-78
2021/08/02 08:24:32;;;;;;;5.60;3.33;;;16.00;99.90;;;;;;5067986;28;20669;-81
2021/08/02 08:26:57;;;;;;;4.90;3.10;;;16.10;99.90;;;;;;5058921;28;20252;-84
2021/08/02 08:29:24;;;;;;;5.30;3.40;;;16.10;99.90;;;;;;5059705;28;20169;-82
2021/08/02 08:31:50;;;;;;;6.17;3.40;;;16.00;99.90;;;;;;5056547;28;20165;-85
2021/08/02 08:34:16;;;;;;;6.47;2.97;;;16.10;99.90;;;;;;5059853;28;20169;-83
2021/08/02 08:36:41;;;;;;;4.63;3.27;;;16.10;99.90;;;;;;5078054;28;20181;-82
2021/08/02 08:39:07;;;;;;;7.60;3.50;;;16.20;99.90;;;;;;5076986;28;20190;-79
2021/08/02 08:41:33;;;;;;;6.30;2.60;;;16.30;99.90;;;;;;5074442;28;20207;-78
2021/08/02 08:43:59;;;;;;;6.37;3.10;;;16.50;99.90;;;;;;5070694;28;20170;-81
2021/08/02 08:46:26;;;;;;;7.63;3.07;;;16.60;99.90;;;;;;5061475;28;20153;-79
2021/08/02 08:48:52;;;;;;;4.97;3.33;;;16.60;99.90;;;;;;5054676;28;20188;-82
2021/08/02 08:51:19;;;;;;;6.53;3.10;;;16.80;99.90;;;;;;5056266;28;20511;-80
2021/08/02 08:53:46;;;;;;;5.40;3.00;;;16.80;99.90;;;;;;5068932;28;20169;-78
2021/08/02 08:56:15;;;;;;;5.10;2.70;;;16.90;99.90;;;;;;5067044;28;20193;-76
2021/08/02 08:58:43;;;;;;;7.60;4.53;;;16.80;98.40;;;;;;5071291;28;20170;-77
2021/08/02 09:01:08;;;;;;;7.20;3.97;;;16.90;99.20;;;;;;5070193;28;20178;-81
2021/08/02 09:03:34;;;;;;;5.73;3.60;;;16.90;97.30;;;;;;5057408;28;20168;-84
2021/08/02 09:06:04;;;;;;;7.60;3.03;;;17.20;96.90;;;;;;5056250;28;20190;-84
2021/08/02 09:08:38;;;;;;;5.70;3.13;;;17.20;95.10;;;;;;5056539;28;20215;-79
2021/08/02 09:11:05;;;;;;;3.80;2.87;;;17.10;95.30;;;;;;5055178;28;20251;-79
2021/08/02 09:13:36;;;;;;;6.37;2.77;;;17.20;94.00;;;;;;5054994;28;20170;-79
2021/08/02 09:16:31;;;;;;;7.20;3.50;;;17.10;93.30;;;;;;5054745;28;20200;-83
2021/08/02 09:19:04;;;;;;;5.97;3.50;;;17.20;94.20;;;;;;5054012;28;20256;-82
2021/08/02 09:21:42;;;;;;;6.00;3.20;;;17.30;96.20;;;;;;5058056;28;20173;-77
2021/08/02 09:24:08;;;;;;;5.13;3.27;;;17.20;94.70;;;;;;5060483;28;20216;-80
2021/08/02 09:26:39;;;;;;;6.53;3.53;;;17.10;94.80;;;;;;5058612;28;20169;-80
2021/08/02 09:29:06;;;;;;;6.00;3.40;;;17.10;94.60;;;;;;5054791;28;20652;-78
2021/08/02 09:31:31;;;;;;;5.40;3.87;;;17.00;93.80;;;;;;5053675;28;20173;-83
2021/08/02 09:34:02;;;;;;;5.63;3.43;;;17.00;94.50;;;;;;5054499;28;20166;-79
2021/08/02 09:36:36;;;;;;;5.43;3.60;;;17.20;94.30;;;;;;5060009;28;20200;-80
2021/08/02 09:39:16;;;;;;;10.03;6.10;;;17.70;94.00;;;;;;5063915;28;20175;-79
2021/08/02 09:41:43;;;;;;;6.67;4.03;;;18.00;93.00;;;;;;5066833;28;20164;-80
2021/08/02 09:44:29;;;;;;;6.83;3.53;;;18.00;91.70;;;;;;5067221;28;20177;-78
2021/08/02 09:47:03;;;;;;;6.83;3.63;;;18.20;87.00;;;;;;5065615;28;20173;-82
2021/08/02 09:49:45;;;;;;;4.73;3.13;;;18.30;85.60;;;;;;5065238;28;20274;-83
2021/08/02 09:52:12;;;;;;;5.87;3.80;;;18.40;84.60;;;;;;5069556;28;20169;-83
2021/08/02 09:54:40;;;;;;;4.80;2.77;;;18.50;83.00;;;;;;5066816;28;20169;-82
2021/08/02 09:57:06;;;;;;;4.77;3.30;;;18.60;84.80;;;;;;5064045;28;20205;-83
2021/08/02 09:59:34;;;;;;;6.37;3.40;;;18.40;84.70;;;;;;5055645;28;20172;-81
2021/08/02 10:02:00;;;;;;;5.83;2.90;;;18.40;88.60;;;;;;5054684;28;20175;-83
2021/08/02 10:04:29;;;;;;;3.73;1.77;;;18.40;85.10;;;;;;5055100;28;20622;-82
2021/08/02 10:06:55;;;;;;;4.20;2.30;;;18.40;79.20;;;;;;5057657;28;20169;-84
2021/08/02 10:09:21;;;;;;;6.23;2.87;;;18.40;85.00;;;;;;5066301;28;20306;-79
2021/08/02 10:11:47;;;;;;;4.30;2.30;;;18.60;84.20;;;;;;5067706;28;20172;-81
2021/08/02 10:14:14;;;;;;;4.53;2.37;;;18.60;76.40;;;;;;5065193;28;20200;-80
2021/08/02 10:16:43;;;;;;;4.03;2.10;;;18.50;81.70;;;;;;5066305;28;20214;-83
2021/08/02 10:19:11;;;;;;;6.70;3.20;;;18.30;78.70;;;;;;5066570;28;20165;-82
2021/08/02 10:21:39;;;;;;;6.40;3.17;;;18.00;78.40;;;;;;5060926;28;20176;-79
2021/08/02 10:24:10;;;;;;;6.03;2.73;;;18.00;82.60;;;;;;5057074;28;20198;-83
2021/08/02 10:26:36;;;;;;;5.20;2.97;;;18.00;81.80;;;;;;5057205;28;20279;-81
2021/08/02 10:29:04;;;;;;;6.43;2.50;;;18.20;81.80;;;;;;5057542;28;20218;-83
2021/08/02 10:31:45;;;;;;;4.27;2.80;;;18.20;80.80;;;;;;5056984;28;20609;-82
2021/08/02 10:34:23;;;;;;;6.03;3.27;;;18.20;80.70;;;;;;5057320;28;20176;-81
2021/08/02 10:36:59;;;;;;;5.60;2.87;;;18.20;79.10;;;;;;5057505;28;20208;-82
2021/08/02 10:39:27;;;;;;;6.07;2.30;;;18.50;76.70;;;;;;5057267;28;20169;-81
2021/08/02 10:42:07;;;;;;;6.30;2.80;;;18.70;77.20;;;;;;5057448;28;20640;-79
2021/08/02 10:44:33;;;;;;;5.43;2.53;;;18.80;71.20;;;;;;5057988;28;20196;-83
2021/08/02 10:47:05;;;;;;;7.83;3.07;;;19.10;73.10;;;;;;5058374;28;20170;-81
2021/08/02 10:49:30;;;;;;;4.87;2.80;;;19.40;72.00;;;;;;5059117;28;20185;-83
2021/08/02 10:51:58;;;;;;;6.50;3.53;;;19.80;69.40;;;;;;5060891;28;20627;-78
2021/08/02 10:54:36;;;;;;;6.87;4.00;;;19.70;60.50;;;;;;5060210;28;20166;-79
2021/08/02 10:57:13;;;;;;;7.87;3.57;;;19.70;57.70;;;;;;5068599;28;20217;-80
2021/08/02 10:59:39;;;;;;;5.00;4.10;;;20.00;56.40;;;;;;5069877;28;20166;-79
2021/08/02 11:02:12;;;;;;;9.23;4.83;;;20.30;53.50;;;;;;5061792;28;20660;-83
2021/08/02 11:04:39;;;;;;;6.63;4.93;;;20.50;45.10;;;;;;5059728;28;20237;-84
2021/08/02 11:07:06;;;;;;;18.73;6.23;;;20.50;42.70;;;;;;5059385;28;20174;-82
2021/08/02 11:09:36;;;;;;;6.20;4.13;;;20.60;38.50;;;;;;5057440;28;20599;-84
2021/08/02 11:12:08;;;;;;;6.30;3.90;;;20.90;30.30;;;;;;5056404;28;20176;-81
2021/08/02 11:14:45;;;;;;;8.77;4.97;;;21.00;25.40;;;;;;5056997;28;20484;-85
2021/08/02 11:17:16;;;;;;;5.67;3.73;;;21.20;20.00;;;;;;5055999;28;20228;-82
2021/08/02 11:19:41;;;;;;;6.47;3.80;;;21.00;3.10;;;;;;5055229;28;20224;-83
2021/08/02 11:22:07;;;;;;;6.87;4.57;;;20.80;1.00;;;;;;5055865;28;20175;-81
2021/08/02 11:24:51;;;;;;;6.10;4.10;;;20.90;10.60;;;;;;5055834;28;20190;-83
2021/08/02 11:27:18;;;;;;;8.90;4.70;;;21.10;11.80;;;;;;5054338;28;20228;-82
2021/08/02 11:29:54;;;;;;;7.17;4.10;;;21.00;22.20;;;;;;5055881;28;20523;-83
2021/08/02 11:32:21;;;;;;;4.87;3.70;;;21.20;21.70;;;;;;5056077;28;20211;-83
2021/08/02 11:34:55;;;;;;;6.70;3.83;;;21.40;8.20;;;;;;5055802;28;20206;-82
2021/08/02 11:37:23;;;;;;;7.30;4.47;;;21.50;1.00;;;;;;5055487;28;20231;-83
2021/08/02 11:40:04;;;;;;;5.40;3.40;;;21.40;1.00;;;;;;5058650;28;20216;-80
2021/08/02 11:42:30;;;;;;;7.10;3.73;;;21.40;1.00;;;;;;5055699;28;20605;-80
2021/08/02 11:44:57;;;;;;;5.43;4.40;;;21.40;1.00;;;;;;5056710;28;20168;-83
2021/08/02 11:47:28;;;;;;;7.53;4.30;;;21.50;1.00;;;;;;5057753;28;20171;-82
2021/08/02 11:49:56;;;;;;;4.70;3.67;;;21.50;1.00;;;;;;5057762;28;20203;-81
2021/08/02 11:52:24;;;;;;;6.43;4.27;;;21.40;1.00;;;;;;5056545;28;20258;-84
2021/08/02 11:55:13;;;;;;;8.20;3.90;;;21.30;1.00;;;;;;5057070;28;20177;-83
2021/08/02 11:57:40;;;;;;;6.97;3.93;;;21.50;1.00;;;;;;5065991;28;20201;-81
2021/08/02 12:00:17;;;;;;;5.13;4.10;;;21.80;1.00;;;;;;5066482;28;20219;-82
2021/08/02 12:02:48;;;;;;;5.67;3.57;;;22.10;1.00;;;;;;5070375;28;20187;-80
2021/08/02 12:05:27;;;;;;;5.70;3.10;;;22.10;1.00;;;;;;5067848;28;20173;-79
2021/08/02 12:07:54;;;;;;;6.53;3.70;;;22.00;1.00;;;;;;5064065;28;20172;-80
2021/08/02 12:10:22;;;;;;;5.17;3.30;;;21.90;1.00;;;;;;5061282;28;20195;-82
2021/08/02 12:13:06;;;;;;;4.50;3.30;;;21.60;1.00;;;;;;5059260;28;20165;-82
2021/08/02 12:15:34;;;;;;;5.73;3.73;;;21.60;1.00;;;;;;5058998;28;20176;-82
2021/08/02 12:18:00;;;;;;;6.40;3.27;;;21.70;1.00;;;;;;5056536;28;20219;-85
2021/08/02 12:20:33;;;;;;;6.93;3.40;;;22.00;1.00;;;;;;5057134;28;20186;-83
2021/08/02 12:23:00;;;;;;;6.23;3.40;;;22.10;1.00;;;;;;5056370;28;20563;-83
2021/08/02 12:25:46;;;;;;;5.20;3.60;;;22.30;1.00;;;;;;5055988;28;20186;-82
2021/08/02 12:28:13;;;;;;;6.70;4.10;;;22.20;1.00;;;;;;5058665;28;20214;-82
2021/08/02 12:30:40;;;;;;;6.63;3.70;;;21.60;1.00;;;;;;5072305;28;20188;-80
2021/08/02 12:33:08;;;;;;;7.53;3.70;;;21.30;1.00;;;;;;5068280;28;20168;-82
2021/08/02 12:35:34;;;;;;;5.17;3.20;;;21.10;1.00;;;;;;5076046;28;20195;-80
2021/08/02 12:38:01;;;;;;;4.90;3.37;;;21.20;1.50;;;;;;5075754;28;20271;-79
2021/08/02 12:40:30;;;;;;;6.87;3.13;;;21.10;8.50;;;;;;5074632;28;20151;-81
2021/08/02 12:42:56;;;;;;;5.27;3.23;;;21.10;8.80;;;;;;5067480;28;20186;-80
2021/08/02 12:45:21;;;;;;;4.63;3.10;;;21.30;2.00;;;;;;5067253;28;20197;-82
2021/08/02 12:47:51;;;;;;;6.87;3.37;;;21.20;1.00;;;;;;5069281;28;20179;-82
2021/08/02 12:50:24;;;;;;;6.20;3.70;;;21.10;1.00;;;;;;5060690;28;20185;-78